sensor_id;sensor_type;location;lat;lon;timestamp;temperature;humidity
43183;DHT22;28802;38.578;-0.066;2022-07-23T00:00:21;26.70;99.90
43183;DHT22;28802;38.578;-0.066;2022-07-23T00:02:47;26.70;99.90
43183;DHT22;28802;38.578;-0.066;2022-07-23T00:05:14;26.70;99.90
43183;DHT22;28802;38.578;-0.066;2022-07-23T00:07:40;26.70;99.90
43183;DHT22;28802;38.578;-0.066;2022-07-23T00:10:06;26.60;99.90
43183;DHT22;28802;38.578;-0.066;2022-07-23T00:12:32;26.50;99.90
43183;DHT22;28802;38.578;-0.066;2022-07-23T00:14:58;26.50;99.90
43183;DHT22;28802;38.578;-0.066;2022-07-23T00:17:25;26.60;99.90
43183;DHT22;28802;38.578;-0.066;2022-07-23T00:19:50;26.60;99.90
43183;DHT22;28802;38.578;-0.066;2022-07-23T00:22:16;26.50;99.90
43183;DHT22;28802;38.578;-0.066;2022-07-23T00:24:42;26.30;99.90
43183;DHT22;28802;38.578;-0.066;2022-07-23T00:27:08;26.20;99.90
43183;DHT22;28802;38.578;-0.066;2022-07-23T00:29:34;26.20;99.90
43183;DHT22;28802;38.578;-0.066;2022-07-23T00:32:00;26.20;99.90
43183;DHT22;28802;38.578;-0.066;2022-07-23T00:34:26;26.30;99.90
43183;DHT22;28802;38.578;-0.066;2022-07-23T00:36:52;26.40;99.90
43183;DHT22;28802;38.578;-0.066;2022-07-23T00:39:20;26.30;99.90
43183;DHT22;28802;38.578;-0.066;2022-07-23T00:41:48;26.20;99.90
43183;DHT22;28802;38.578;-0.066;2022-07-23T00:44:18;26.20;99.90
43183;DHT22;28802;38.578;-0.066;2022-07-23T00:46:48;26.20;99.90
43183;DHT22;28802;38.578;-0.066;2022-07-23T00:49:15;26.20;99.90
43183;DHT22;28802;38.578;-0.066;2022-07-23T00:51:41;26.20;99.90
43183;DHT22;28802;38.578;-0.066;2022-07-23T00:54:07;26.30;99.90
43183;DHT22;28802;38.578;-0.066;2022-07-23T00:56:33;26.20;99.90
43183;DHT22;28802;38.578;-0.066;2022-07-23T01:01:40;26.30;99.90
43183;DHT22;28802;38.578;-0.066;2022-07-23T01:04:06;26.10;99.90
43183;DHT22;28802;38.578;-0.066;2022-07-23T01:06:37;25.90;99.90
43183;DHT22;28802;38.578;-0.066;2022-07-23T01:09:07;26.00;99.90
43183;DHT22;28802;38.578;-0.066;2022-07-23T01:11:34;26.10;99.90
43183;DHT22;28802;38.578;-0.066;2022-07-23T01:14:16;26.10;99.90
43183;DHT22;28802;38.578;-0.066;2022-07-23T01:16:44;26.30;99.90
43183;DHT22;28802;38.578;-0.066;2022-07-23T01:19:10;26.20;99.90
43183;DHT22;28802;38.578;-0.066;2022-07-23T01:21:47;26.10;99.90
43183;DHT22;28802;38.578;-0.066;2022-07-23T01:24:13;25.90;99.90
43183;DHT22;28802;38.578;-0.066;2022-07-23T01:26:48;25.90;99.90
43183;DHT22;28802;38.578;-0.066;2022-07-23T01:29:16;25.80;99.90
43183;DHT22;28802;38.578;-0.066;2022-07-23T01:31:44;25.70;99.90
43183;DHT22;28802;38.578;-0.066;2022-07-23T01:34:10;25.70;99.90
43183;DHT22;28802;38.578;-0.066;2022-07-23T01:36:36;25.70;99.90
43183;DHT22;28802;38.578;-0.066;2022-07-23T01:39:04;25.60;99.90
43183;DHT22;28802;38.578;-0.066;2022-07-23T01:41:30;25.60;99.90
43183;DHT22;28802;38.578;-0.066;2022-07-23T01:43:56;25.60;99.90
43183;DHT22;28802;38.578;-0.066;2022-07-23T01:46:22;25.70;99.90
43183;DHT22;28802;38.578;-0.066;2022-07-23T01:48:49;25.50;99.90
43183;DHT22;28802;38.578;-0.066;2022-07-23T01:51:38;25.60;99.90
43183;DHT22;28802;38.578;-0.066;2022-07-23T01:54:28;25.50;99.90
43183;DHT22;28802;38.578;-0.066;2022-07-23T01:56:55;25.40;99.90
43183;DHT22;28802;38.578;-0.066;2022-07-23T01:59:21;25.30;99.90
43183;DHT22;28802;38.578;-0.066;2022-07-23T02:01:48;25.20;99.90
43183;DHT22;28802;38.578;-0.066;2022-07-23T02:04:17;25.10;99.90
43183;DHT22;28802;38.578;-0.066;2022-07-23T02:06:45;25.10;99.90
43183;DHT22;28802;38.578;-0.066;2022-07-23T02:09:11;25.10;99.90
43183;DHT22;28802;38.578;-0.066;2022-07-23T02:11:37;25.10;99.90
43183;DHT22;28802;38.578;-0.066;2022-07-23T02:14:04;25.20;99.90
43183;DHT22;28802;38.578;-0.066;2022-07-23T02:16:30;25.30;99.90
43183;DHT22;28802;38.578;-0.066;2022-07-23T02:19:01;25.20;99.90
43183;DHT22;28802;38.578;-0.066;2022-07-23T02:21:27;25.10;99.90
43183;DHT22;28802;38.578;-0.066;2022-07-23T02:23:53;25.00;99.90
43183;DHT22;28802;38.578;-0.066;2022-07-23T02:26:19;25.10;99.90
43183;DHT22;28802;38.578;-0.066;2022-07-23T02:28:46;25.20;99.90
43183;DHT22;28802;38.578;-0.066;2022-07-23T02:31:12;25.20;99.90
43183;DHT22;28802;38.578;-0.066;2022-07-23T02:33:38;25.30;99.90
43183;DHT22;28802;38.578;-0.066;2022-07-23T02:36:04;25.30;99.90
43183;DHT22;28802;38.578;-0.066;2022-07-23T02:38:31;25.40;99.90
43183;DHT22;28802;38.578;-0.066;2022-07-23T02:40:57;25.50;99.90
43183;DHT22;28802;38.578;-0.066;2022-07-23T02:43:23;25.50;99.90
43183;DHT22;28802;38.578;-0.066;2022-07-23T02:45:49;25.50;99.90
43183;DHT22;28802;38.578;-0.066;2022-07-23T02:48:15;25.60;99.90
43183;DHT22;28802;38.578;-0.066;2022-07-23T02:50:43;25.50;99.90
43183;DHT22;28802;38.578;-0.066;2022-07-23T02:53:12;25.40;99.90
43183;DHT22;28802;38.578;-0.066;2022-07-23T02:55:39;25.20;99.90
43183;DHT22;28802;38.578;-0.066;2022-07-23T02:58:05;25.10;99.90
43183;DHT22;28802;38.578;-0.066;2022-07-23T03:00:31;25.10;99.90
43183;DHT22;28802;38.578;-0.066;2022-07-23T03:02:57;25.10;99.90
43183;DHT22;28802;38.578;-0.066;2022-07-23T03:05:23;25.20;99.90
43183;DHT22;28802;38.578;-0.066;2022-07-23T03:07:49;25.30;99.90
43183;DHT22;28802;38.578;-0.066;2022-07-23T03:10:14;25.10;99.90
43183;DHT22;28802;38.578;-0.066;2022-07-23T03:12:43;25.00;99.90
43183;DHT22;28802;38.578;-0.066;2022-07-23T03:15:09;24.90;99.90
43183;DHT22;28802;38.578;-0.066;2022-07-23T03:17:35;24.70;99.90
43183;DHT22;28802;38.578;-0.066;2022-07-23T03:20:02;24.50;99.90
43183;DHT22;28802;38.578;-0.066;2022-07-23T03:22:28;24.50;99.90
43183;DHT22;28802;38.578;-0.066;2022-07-23T03:24:54;24.50;99.90
43183;DHT22;28802;38.578;-0.066;2022-07-23T03:27:28;24.60;99.90
43183;DHT22;28802;38.578;-0.066;2022-07-23T03:29:55;24.60;99.90
43183;DHT22;28802;38.578;-0.066;2022-07-23T03:32:23;24.60;99.90
43183;DHT22;28802;38.578;-0.066;2022-07-23T03:34:49;24.50;99.90
43183;DHT22;28802;38.578;-0.066;2022-07-23T03:37:16;24.40;99.90
43183;DHT22;28802;38.578;-0.066;2022-07-23T03:39:43;24.30;99.90
43183;DHT22;28802;38.578;-0.066;2022-07-23T03:42:09;24.30;99.90
43183;DHT22;28802;38.578;-0.066;2022-07-23T03:44:36;24.40;99.90
43183;DHT22;28802;38.578;-0.066;2022-07-23T03:47:03;24.40;99.90
43183;DHT22;28802;38.578;-0.066;2022-07-23T03:49:29;24.40;99.90
43183;DHT22;28802;38.578;-0.066;2022-07-23T03:51:55;24.50;99.90
43183;DHT22;28802;38.578;-0.066;2022-07-23T03:54:21;24.50;99.90
43183;DHT22;28802;38.578;-0.066;2022-07-23T03:56:47;24.50;99.90
43183;DHT22;28802;38.578;-0.066;2022-07-23T04:01:41;24.50;99.90
43183;DHT22;28802;38.578;-0.066;2022-07-23T04:04:07;24.50;99.90
43183;DHT22;28802;38.578;-0.066;2022-07-23T04:06:36;24.60;99.90
43183;DHT22;28802;38.578;-0.066;2022-07-23T04:09:03;24.50;99.90
43183;DHT22;28802;38.578;-0.066;2022-07-23T04:11:30;24.50;99.90
43183;DHT22;28802;38.578;-0.066;2022-07-23T04:13:56;24.40;99.90
43183;DHT22;28802;38.578;-0.066;2022-07-23T04:16:22;24.20;99.90
43183;DHT22;28802;38.578;-0.066;2022-07-23T04:18:49;24.20;99.90
43183;DHT22;28802;38.578;-0.066;2022-07-23T04:21:18;24.20;99.90
43183;DHT22;28802;38.578;-0.066;2022-07-23T04:23:45;24.20;99.90
43183;DHT22;28802;38.578;-0.066;2022-07-23T04:26:11;24.10;99.90
43183;DHT22;28802;38.578;-0.066;2022-07-23T04:28:37;24.00;99.90
43183;DHT22;28802;38.578;-0.066;2022-07-23T04:31:04;24.00;99.90
43183;DHT22;28802;38.578;-0.066;2022-07-23T04:33:31;23.90;99.90
43183;DHT22;28802;38.578;-0.066;2022-07-23T04:36:00;23.80;99.90
43183;DHT22;28802;38.578;-0.066;2022-07-23T04:38:27;23.80;99.90
43183;DHT22;28802;38.578;-0.066;2022-07-23T04:40:57;23.80;99.90
43183;DHT22;28802;38.578;-0.066;2022-07-23T04:43:25;23.80;99.90
43183;DHT22;28802;38.578;-0.066;2022-07-23T04:45:51;23.80;99.90
43183;DHT22;28802;38.578;-0.066;2022-07-23T04:48:17;23.80;99.90
43183;DHT22;28802;38.578;-0.066;2022-07-23T04:50:43;23.80;99.90
43183;DHT22;28802;38.578;-0.066;2022-07-23T04:53:16;23.80;99.90
43183;DHT22;28802;38.578;-0.066;2022-07-23T04:55:43;23.80;99.90
43183;DHT22;28802;38.578;-0.066;2022-07-23T04:58:09;23.70;99.90
43183;DHT22;28802;38.578;-0.066;2022-07-23T05:00:35;23.70;99.90
43183;DHT22;28802;38.578;-0.066;2022-07-23T05:03:01;23.70;99.90
43183;DHT22;28802;38.578;-0.066;2022-07-23T05:05:27;23.80;99.90
43183;DHT22;28802;38.578;-0.066;2022-07-23T05:07:58;23.90;99.90
43183;DHT22;28802;38.578;-0.066;2022-07-23T05:10:24;24.10;99.90
43183;DHT22;28802;38.578;-0.066;2022-07-23T05:12:50;24.40;99.90
43183;DHT22;28802;38.578;-0.066;2022-07-23T05:15:16;24.30;99.90
43183;DHT22;28802;38.578;-0.066;2022-07-23T05:17:42;24.30;99.90
43183;DHT22;28802;38.578;-0.066;2022-07-23T05:20:12;24.50;99.90
43183;DHT22;28802;38.578;-0.066;2022-07-23T05:22:40;24.70;99.90
43183;DHT22;28802;38.578;-0.066;2022-07-23T05:25:06;25.00;99.90
43183;DHT22;28802;38.578;-0.066;2022-07-23T05:27:32;25.30;99.90
43183;DHT22;28802;38.578;-0.066;2022-07-23T05:29:58;25.40;99.90
43183;DHT22;28802;38.578;-0.066;2022-07-23T05:32:25;25.50;99.90
43183;DHT22;28802;38.578;-0.066;2022-07-23T05:35:00;25.60;99.90
43183;DHT22;28802;38.578;-0.066;2022-07-23T05:37:26;25.70;99.90
43183;DHT22;28802;38.578;-0.066;2022-07-23T05:39:52;25.90;99.90
43183;DHT22;28802;38.578;-0.066;2022-07-23T05:42:18;26.30;99.90
43183;DHT22;28802;38.578;-0.066;2022-07-23T05:44:44;26.70;99.90
43183;DHT22;28802;38.578;-0.066;2022-07-23T05:47:10;27.30;99.90
43183;DHT22;28802;38.578;-0.066;2022-07-23T05:49:37;27.80;99.90
43183;DHT22;28802;38.578;-0.066;2022-07-23T05:52:06;28.20;99.90
43183;DHT22;28802;38.578;-0.066;2022-07-23T05:54:52;28.40;99.90
43183;DHT22;28802;38.578;-0.066;2022-07-23T05:57:17;28.70;99.90
43183;DHT22;28802;38.578;-0.066;2022-07-23T05:59:43;29.00;99.90
43183;DHT22;28802;38.578;-0.066;2022-07-23T06:02:09;29.60;99.90
43183;DHT22;28802;38.578;-0.066;2022-07-23T06:04:35;30.20;99.90
43183;DHT22;28802;38.578;-0.066;2022-07-23T06:07:15;30.70;99.90
43183;DHT22;28802;38.578;-0.066;2022-07-23T06:09:41;31.20;99.90
43183;DHT22;28802;38.578;-0.066;2022-07-23T06:12:08;31.50;99.90
43183;DHT22;28802;38.578;-0.066;2022-07-23T06:14:34;31.80;99.90
43183;DHT22;28802;38.578;-0.066;2022-07-23T06:17:00;31.80;99.90
43183;DHT22;28802;38.578;-0.066;2022-07-23T06:19:26;31.50;99.90
43183;DHT22;28802;38.578;-0.066;2022-07-23T06:21:53;31.90;99.90
43183;DHT22;28802;38.578;-0.066;2022-07-23T06:24:19;32.50;99.90
43183;DHT22;28802;38.578;-0.066;2022-07-23T06:26:45;33.20;99.90
43183;DHT22;28802;38.578;-0.066;2022-07-23T06:29:11;33.50;99.90
43183;DHT22;28802;38.578;-0.066;2022-07-23T06:31:37;34.00;99.90
43183;DHT22;28802;38.578;-0.066;2022-07-23T06:34:03;34.50;99.90
43183;DHT22;28802;38.578;-0.066;2022-07-23T06:36:29;33.10;99.90
43183;DHT22;28802;38.578;-0.066;2022-07-23T06:38:55;32.10;99.90
43183;DHT22;28802;38.578;-0.066;2022-07-23T06:41:21;31.80;99.90
43183;DHT22;28802;38.578;-0.066;2022-07-23T06:43:48;31.70;99.90
43183;DHT22;28802;38.578;-0.066;2022-07-23T06:46:16;31.80;99.90
43183;DHT22;28802;38.578;-0.066;2022-07-23T06:48:42;32.10;99.90
43183;DHT22;28802;38.578;-0.066;2022-07-23T06:51:08;32.30;99.90
43183;DHT22;28802;38.578;-0.066;2022-07-23T06:53:34;31.30;99.90
43183;DHT22;28802;38.578;-0.066;2022-07-23T06:56:00;30.00;99.90
43183;DHT22;28802;38.578;-0.066;2022-07-23T06:58:26;30.00;99.90
43183;DHT22;28802;38.578;-0.066;2022-07-23T07:00:52;30.30;99.90
43183;DHT22;28802;38.578;-0.066;2022-07-23T07:03:19;30.40;99.90
43183;DHT22;28802;38.578;-0.066;2022-07-23T07:05:45;31.40;99.90
43183;DHT22;28802;38.578;-0.066;2022-07-23T07:08:11;32.60;99.90
43183;DHT22;28802;38.578;-0.066;2022-07-23T07:10:37;32.30;99.90
43183;DHT22;28802;38.578;-0.066;2022-07-23T07:13:03;31.30;99.90
43183;DHT22;28802;38.578;-0.066;2022-07-23T07:15:29;30.70;99.90
43183;DHT22;28802;38.578;-0.066;2022-07-23T07:17:55;30.30;99.90
43183;DHT22;28802;38.578;-0.066;2022-07-23T07:20:21;30.60;99.90
43183;DHT22;28802;38.578;-0.066;2022-07-23T07:22:47;30.70;99.90
43183;DHT22;28802;38.578;-0.066;2022-07-23T07:25:13;31.00;99.90
43183;DHT22;28802;38.578;-0.066;2022-07-23T07:27:39;30.90;99.90
43183;DHT22;28802;38.578;-0.066;2022-07-23T07:30:05;30.80;99.90
43183;DHT22;28802;38.578;-0.066;2022-07-23T07:32:32;31.50;99.90
43183;DHT22;28802;38.578;-0.066;2022-07-23T07:35:05;31.90;99.90
43183;DHT22;28802;38.578;-0.066;2022-07-23T07:37:31;31.90;99.90
43183;DHT22;28802;38.578;-0.066;2022-07-23T07:39:57;31.70;99.90
43183;DHT22;28802;38.578;-0.066;2022-07-23T07:42:23;31.80;99.90
43183;DHT22;28802;38.578;-0.066;2022-07-23T07:44:49;32.10;99.90
43183;DHT22;28802;38.578;-0.066;2022-07-23T07:47:15;32.60;99.90
43183;DHT22;28802;38.578;-0.066;2022-07-23T07:49:44;32.80;99.90
43183;DHT22;28802;38.578;-0.066;2022-07-23T07:52:10;31.70;99.90
43183;DHT22;28802;38.578;-0.066;2022-07-23T07:54:37;32.30;99.90
43183;DHT22;28802;38.578;-0.066;2022-07-23T07:57:03;32.70;99.90
43183;DHT22;28802;38.578;-0.066;2022-07-23T07:59:29;33.10;99.90
43183;DHT22;28802;38.578;-0.066;2022-07-23T08:01:55;33.10;99.90
43183;DHT22;28802;38.578;-0.066;2022-07-23T08:04:21;32.50;99.90
43183;DHT22;28802;38.578;-0.066;2022-07-23T08:06:47;32.60;99.90
43183;DHT22;28802;38.578;-0.066;2022-07-23T08:09:13;32.70;99.90
43183;DHT22;28802;38.578;-0.066;2022-07-23T08:11:38;32.20;99.90
43183;DHT22;28802;38.578;-0.066;2022-07-23T08:14:04;31.60;99.90
43183;DHT22;28802;38.578;-0.066;2022-07-23T08:16:30;31.30;99.90
43183;DHT22;28802;38.578;-0.066;2022-07-23T08:18:56;31.10;99.90
43183;DHT22;28802;38.578;-0.066;2022-07-23T08:21:22;30.50;99.90
43183;DHT22;28802;38.578;-0.066;2022-07-23T08:23:48;30.60;99.90
43183;DHT22;28802;38.578;-0.066;2022-07-23T08:26:14;31.20;99.90
43183;DHT22;28802;38.578;-0.066;2022-07-23T08:28:40;31.40;99.90
43183;DHT22;28802;38.578;-0.066;2022-07-23T08:31:06;31.60;99.90
43183;DHT22;28802;38.578;-0.066;2022-07-23T08:33:32;32.80;99.90
43183;DHT22;28802;38.578;-0.066;2022-07-23T08:35:58;33.20;99.90
43183;DHT22;28802;38.578;-0.066;2022-07-23T08:38:25;32.20;99.90
43183;DHT22;28802;38.578;-0.066;2022-07-23T08:40:54;32.60;99.90
43183;DHT22;28802;38.578;-0.066;2022-07-23T08:43:28;31.50;99.90
43183;DHT22;28802;38.578;-0.066;2022-07-23T08:45:57;31.40;99.90
43183;DHT22;28802;38.578;-0.066;2022-07-23T08:48:26;31.10;99.90
43183;DHT22;28802;38.578;-0.066;2022-07-23T08:50:54;31.50;99.90
43183;DHT22;28802;38.578;-0.066;2022-07-23T08:53:22;31.50;99.90
43183;DHT22;28802;38.578;-0.066;2022-07-23T08:55:50;31.80;99.90
43183;DHT22;28802;38.578;-0.066;2022-07-23T08:58:16;31.60;99.90
43183;DHT22;28802;38.578;-0.066;2022-07-23T09:00:43;31.90;99.90
43183;DHT22;28802;38.578;-0.066;2022-07-23T09:03:17;31.50;99.90
43183;DHT22;28802;38.578;-0.066;2022-07-23T09:05:44;31.60;99.90
43183;DHT22;28802;38.578;-0.066;2022-07-23T09:08:14;30.90;99.90
43183;DHT22;28802;38.578;-0.066;2022-07-23T09:13:27;31.10;99.90
43183;DHT22;28802;38.578;-0.066;2022-07-23T09:15:55;30.60;99.90
43183;DHT22;28802;38.578;-0.066;2022-07-23T09:18:39;30.00;99.90
43183;DHT22;28802;38.578;-0.066;2022-07-23T09:21:16;29.50;99.90
43183;DHT22;28802;38.578;-0.066;2022-07-23T09:23:45;29.60;99.90
43183;DHT22;28802;38.578;-0.066;2022-07-23T09:28:53;29.80;99.90
43183;DHT22;28802;38.578;-0.066;2022-07-23T09:31:20;30.00;99.90
43183;DHT22;28802;38.578;-0.066;2022-07-23T09:33:46;29.60;99.90
43183;DHT22;28802;38.578;-0.066;2022-07-23T09:36:12;29.80;99.90
43183;DHT22;28802;38.578;-0.066;2022-07-23T09:38:49;29.80;99.90
43183;DHT22;28802;38.578;-0.066;2022-07-23T09:41:16;29.90;99.90
43183;DHT22;28802;38.578;-0.066;2022-07-23T09:43:42;29.80;99.90
43183;DHT22;28802;38.578;-0.066;2022-07-23T09:48:47;29.70;99.90
43183;DHT22;28802;38.578;-0.066;2022-07-23T09:51:14;29.90;99.90
43183;DHT22;28802;38.578;-0.066;2022-07-23T09:53:46;30.00;99.90
43183;DHT22;28802;38.578;-0.066;2022-07-23T09:56:13;30.10;99.90
43183;DHT22;28802;38.578;-0.066;2022-07-23T09:58:40;30.10;99.90
43183;DHT22;28802;38.578;-0.066;2022-07-23T10:01:14;29.60;99.90
43183;DHT22;28802;38.578;-0.066;2022-07-23T10:03:42;29.40;99.90
43183;DHT22;28802;38.578;-0.066;2022-07-23T10:06:27;29.40;99.90
43183;DHT22;28802;38.578;-0.066;2022-07-23T10:09:16;29.30;99.90
43183;DHT22;28802;38.578;-0.066;2022-07-23T10:12:05;29.50;99.90
43183;DHT22;28802;38.578;-0.066;2022-07-23T10:14:49;29.50;99.90
43183;DHT22;28802;38.578;-0.066;2022-07-23T10:17:17;29.40;99.90
43183;DHT22;28802;38.578;-0.066;2022-07-23T10:19:44;29.40;99.90
43183;DHT22;28802;38.578;-0.066;2022-07-23T10:22:13;29.20;99.90
43183;DHT22;28802;38.578;-0.066;2022-07-23T10:30:07;29.80;99.90
43183;DHT22;28802;38.578;-0.066;2022-07-23T10:38:15;30.10;99.90
43183;DHT22;28802;38.578;-0.066;2022-07-23T10:41:13;30.10;99.90
43183;DHT22;28802;38.578;-0.066;2022-07-23T10:43:39;30.20;99.90
43183;DHT22;28802;38.578;-0.066;2022-07-23T10:46:22;30.10;99.90
43183;DHT22;28802;38.578;-0.066;2022-07-23T10:49:24;30.10;99.90
43183;DHT22;28802;38.578;-0.066;2022-07-23T10:52:16;30.10;99.90
43183;DHT22;28802;38.578;-0.066;2022-07-23T10:54:45;30.10;99.90
43183;DHT22;28802;38.578;-0.066;2022-07-23T10:57:12;30.20;99.90
43183;DHT22;28802;38.578;-0.066;2022-07-23T11:02:29;30.10;99.90
43183;DHT22;28802;38.578;-0.066;2022-07-23T11:05:00;30.20;99.90
43183;DHT22;28802;38.578;-0.066;2022-07-23T11:19:02;30.40;99.90
43183;DHT22;28802;38.578;-0.066;2022-07-23T11:24:10;30.40;99.90
43183;DHT22;28802;38.578;-0.066;2022-07-23T11:26:48;29.80;99.90
43183;DHT22;28802;38.578;-0.066;2022-07-23T11:29:37;30.40;99.90
43183;DHT22;28802;38.578;-0.066;2022-07-23T11:32:05;30.40;99.90
43183;DHT22;28802;38.578;-0.066;2022-07-23T11:34:42;30.50;99.90
43183;DHT22;28802;38.578;-0.066;2022-07-23T11:37:10;30.70;99.90
43183;DHT22;28802;38.578;-0.066;2022-07-23T11:39:37;30.60;99.90
43183;DHT22;28802;38.578;-0.066;2022-07-23T11:42:06;29.90;99.90
43183;DHT22;28802;38.578;-0.066;2022-07-23T11:44:39;30.50;99.90
43183;DHT22;28802;38.578;-0.066;2022-07-23T11:47:07;30.40;99.90
43183;DHT22;28802;38.578;-0.066;2022-07-23T11:49:33;30.30;99.90
43183;DHT22;28802;38.578;-0.066;2022-07-23T11:52:14;29.80;99.90
43183;DHT22;28802;38.578;-0.066;2022-07-23T11:57:14;29.50;99.90
43183;DHT22;28802;38.578;-0.066;2022-07-23T11:59:40;29.50;99.90
43183;DHT22;28802;38.578;-0.066;2022-07-23T12:02:07;29.30;99.90
43183;DHT22;28802;38.578;-0.066;2022-07-23T12:04:46;29.30;99.90
43183;DHT22;28802;38.578;-0.066;2022-07-23T12:07:35;29.70;99.90
43183;DHT22;28802;38.578;-0.066;2022-07-23T12:10:09;29.90;99.90
43183;DHT22;28802;38.578;-0.066;2022-07-23T12:12:41;30.20;99.90
43183;DHT22;28802;38.578;-0.066;2022-07-23T12:15:08;30.60;99.90
43183;DHT22;28802;38.578;-0.066;2022-07-23T12:17:39;30.20;99.90
43183;DHT22;28802;38.578;-0.066;2022-07-23T12:20:07;30.50;99.90
43183;DHT22;28802;38.578;-0.066;2022-07-23T12:22:42;30.20;99.90
43183;DHT22;28802;38.578;-0.066;2022-07-23T12:25:16;30.40;99.90
43183;DHT22;28802;38.578;-0.066;2022-07-23T12:27:43;30.80;99.90
43183;DHT22;28802;38.578;-0.066;2022-07-23T12:30:28;30.30;99.90
43183;DHT22;28802;38.578;-0.066;2022-07-23T12:32:56;29.60;99.90
43183;DHT22;28802;38.578;-0.066;2022-07-23T12:35:29;29.50;99.90
43183;DHT22;28802;38.578;-0.066;2022-07-23T12:38:02;29.60;99.90
43183;DHT22;28802;38.578;-0.066;2022-07-23T12:43:00;29.20;99.90
43183;DHT22;28802;38.578;-0.066;2022-07-23T12:45:28;29.70;99.90
43183;DHT22;28802;38.578;-0.066;2022-07-23T12:48:06;29.30;99.90
43183;DHT22;28802;38.578;-0.066;2022-07-23T12:50:38;29.40;99.90
43183;DHT22;28802;38.578;-0.066;2022-07-23T12:53:14;29.50;99.90
43183;DHT22;28802;38.578;-0.066;2022-07-23T12:55:42;29.40;99.90
43183;DHT22;28802;38.578;-0.066;2022-07-23T12:58:16;29.60;99.90
43183;DHT22;28802;38.578;-0.066;2022-07-23T13:01:10;29.80;99.90
43183;DHT22;28802;38.578;-0.066;2022-07-23T13:03:57;29.70;99.90
43183;DHT22;28802;38.578;-0.066;2022-07-23T13:06:24;30.00;99.90
43183;DHT22;28802;38.578;-0.066;2022-07-23T13:08:50;29.70;99.90
43183;DHT22;28802;38.578;-0.066;2022-07-23T13:11:16;29.50;99.90
43183;DHT22;28802;38.578;-0.066;2022-07-23T13:13:42;29.30;99.90
43183;DHT22;28802;38.578;-0.066;2022-07-23T13:16:08;29.40;99.90
43183;DHT22;28802;38.578;-0.066;2022-07-23T13:18:34;29.20;99.90
43183;DHT22;28802;38.578;-0.066;2022-07-23T13:21:00;29.10;99.90
43183;DHT22;28802;38.578;-0.066;2022-07-23T13:23:26;29.00;99.90
43183;DHT22;28802;38.578;-0.066;2022-07-23T13:25:53;29.10;99.90
43183;DHT22;28802;38.578;-0.066;2022-07-23T13:28:19;29.40;99.90
43183;DHT22;28802;38.578;-0.066;2022-07-23T13:30:46;29.30;99.90
43183;DHT22;28802;38.578;-0.066;2022-07-23T13:33:16;29.30;99.90
43183;DHT22;28802;38.578;-0.066;2022-07-23T13:35:42;29.60;99.90
43183;DHT22;28802;38.578;-0.066;2022-07-23T13:38:09;29.80;99.90
43183;DHT22;28802;38.578;-0.066;2022-07-23T13:40:38;29.60;99.90
43183;DHT22;28802;38.578;-0.066;2022-07-23T13:43:06;29.60;99.90
43183;DHT22;28802;38.578;-0.066;2022-07-23T13:45:33;29.50;99.90
43183;DHT22;28802;38.578;-0.066;2022-07-23T13:47:59;30.00;99.90
43183;DHT22;28802;38.578;-0.066;2022-07-23T13:50:26;30.00;99.90
43183;DHT22;28802;38.578;-0.066;2022-07-23T13:52:51;30.10;99.90
43183;DHT22;28802;38.578;-0.066;2022-07-23T13:55:17;30.50;99.90
43183;DHT22;28802;38.578;-0.066;2022-07-23T13:57:43;30.90;99.90
43183;DHT22;28802;38.578;-0.066;2022-07-23T14:00:10;31.30;99.90
43183;DHT22;28802;38.578;-0.066;2022-07-23T14:02:38;31.20;99.90
43183;DHT22;28802;38.578;-0.066;2022-07-23T14:05:09;31.50;99.90
43183;DHT22;28802;38.578;-0.066;2022-07-23T14:07:36;31.10;99.90
43183;DHT22;28802;38.578;-0.066;2022-07-23T14:10:06;30.80;99.90
43183;DHT22;28802;38.578;-0.066;2022-07-23T14:12:32;30.50;99.90
43183;DHT22;28802;38.578;-0.066;2022-07-23T14:14:58;30.30;99.90
43183;DHT22;28802;38.578;-0.066;2022-07-23T14:17:25;30.80;99.90
43183;DHT22;28802;38.578;-0.066;2022-07-23T14:19:50;31.00;99.90
43183;DHT22;28802;38.578;-0.066;2022-07-23T14:22:16;31.10;99.90
43183;DHT22;28802;38.578;-0.066;2022-07-23T14:24:42;31.10;99.90
43183;DHT22;28802;38.578;-0.066;2022-07-23T14:27:09;31.30;99.90
43183;DHT22;28802;38.578;-0.066;2022-07-23T14:29:35;31.50;99.90
43183;DHT22;28802;38.578;-0.066;2022-07-23T14:32:02;31.80;99.90
43183;DHT22;28802;38.578;-0.066;2022-07-23T14:34:28;31.30;99.90
43183;DHT22;28802;38.578;-0.066;2022-07-23T14:36:54;31.50;99.90
43183;DHT22;28802;38.578;-0.066;2022-07-23T14:39:20;31.40;99.90
43183;DHT22;28802;38.578;-0.066;2022-07-23T14:41:46;31.20;99.90
43183;DHT22;28802;38.578;-0.066;2022-07-23T14:44:12;31.20;99.90
43183;DHT22;28802;38.578;-0.066;2022-07-23T14:46:38;31.00;99.90
43183;DHT22;28802;38.578;-0.066;2022-07-23T14:49:03;31.00;99.90
43183;DHT22;28802;38.578;-0.066;2022-07-23T14:51:30;31.60;99.90
43183;DHT22;28802;38.578;-0.066;2022-07-23T14:53:56;31.40;99.90
43183;DHT22;28802;38.578;-0.066;2022-07-23T14:56:22;31.60;99.90
43183;DHT22;28802;38.578;-0.066;2022-07-23T14:58:48;31.60;99.90
43183;DHT22;28802;38.578;-0.066;2022-07-23T15:01:14;31.60;99.90
43183;DHT22;28802;38.578;-0.066;2022-07-23T15:03:40;31.30;99.90
43183;DHT22;28802;38.578;-0.066;2022-07-23T15:06:06;31.30;99.90
43183;DHT22;28802;38.578;-0.066;2022-07-23T15:08:32;31.10;99.90
43183;DHT22;28802;38.578;-0.066;2022-07-23T15:10:59;31.20;99.90
43183;DHT22;28802;38.578;-0.066;2022-07-23T15:13:25;31.40;99.90
43183;DHT22;28802;38.578;-0.066;2022-07-23T15:15:50;30.80;99.90
43183;DHT22;28802;38.578;-0.066;2022-07-23T15:18:16;30.80;99.90
43183;DHT22;28802;38.578;-0.066;2022-07-23T15:20:43;30.80;99.90
43183;DHT22;28802;38.578;-0.066;2022-07-23T15:23:08;31.20;99.90
43183;DHT22;28802;38.578;-0.066;2022-07-23T15:25:35;31.20;99.90
43183;DHT22;28802;38.578;-0.066;2022-07-23T15:28:01;31.10;99.90
43183;DHT22;28802;38.578;-0.066;2022-07-23T15:30:27;30.80;99.90
43183;DHT22;28802;38.578;-0.066;2022-07-23T15:32:53;30.80;99.90
43183;DHT22;28802;38.578;-0.066;2022-07-23T15:35:20;30.90;99.90
43183;DHT22;28802;38.578;-0.066;2022-07-23T15:37:46;31.10;99.90
43183;DHT22;28802;38.578;-0.066;2022-07-23T15:40:12;31.40;99.90
43183;DHT22;28802;38.578;-0.066;2022-07-23T15:42:38;31.50;99.90
43183;DHT22;28802;38.578;-0.066;2022-07-23T15:45:05;31.70;99.90
43183;DHT22;28802;38.578;-0.066;2022-07-23T15:47:31;31.70;99.90
43183;DHT22;28802;38.578;-0.066;2022-07-23T15:49:57;31.70;99.90
43183;DHT22;28802;38.578;-0.066;2022-07-23T15:52:23;31.30;99.90
43183;DHT22;28802;38.578;-0.066;2022-07-23T15:54:49;31.30;99.90
43183;DHT22;28802;38.578;-0.066;2022-07-23T15:57:15;31.60;99.90
43183;DHT22;28802;38.578;-0.066;2022-07-23T15:59:41;31.90;99.90
43183;DHT22;28802;38.578;-0.066;2022-07-23T16:02:07;31.80;99.90
43183;DHT22;28802;38.578;-0.066;2022-07-23T16:04:34;31.90;99.90
43183;DHT22;28802;38.578;-0.066;2022-07-23T16:07:00;32.00;99.90